sensor_id;sensor_type;location;lat;lon;timestamp;P1;durP1;ratioP1;P2;durP2;ratioP2
20344;SDS011;10330;48.816;9.278;2024-02-21T00:03:26;9.82;;;3.22;;
20344;SDS011;10330;48.816;9.278;2024-02-21T00:05:55;11.18;;;3.75;;
20344;SDS011;10330;48.816;9.278;2024-02-21T00:08:32;12.75;;;3.58;;
20344;SDS011;10330;48.816;9.278;2024-02-21T00:11:01;8.75;;;3.35;;
20344;SDS011;10330;48.816;9.278;2024-02-21T00:13:28;14.73;;;3.40;;
20344;SDS011;10330;48.816;9.278;2024-02-21T00:15:54;9.07;;;3.28;;
20344;SDS011;10330;48.816;9.278;2024-02-21T00:18:20;11.38;;;3.72;;
20344;SDS011;10330;48.816;9.278;2024-02-21T00:20:58;18.13;;;4.32;;
20344;SDS011;10330;48.816;9.278;2024-02-21T00:23:45;14.07;;;4.13;;
20344;SDS011;10330;48.816;9.278;2024-02-21T00:26:12;12.05;;;3.58;;
20344;SDS011;10330;48.816;9.278;2024-02-21T00:28:43;16.50;;;3.20;;
20344;SDS011;10330;48.816;9.278;2024-02-21T00:31:12;8.75;;;3.40;;
20344;SDS011;10330;48.816;9.278;2024-02-21T00:33:38;15.07;;;4.18;;
20344;SDS011;10330;48.816;9.278;2024-02-21T00:36:05;12.75;;;3.10;;
20344;SDS011;10330;48.816;9.278;2024-02-21T00:38:34;10.45;;;3.38;;
20344;SDS011;10330;48.816;9.278;2024-02-21T00:41:08;18.25;;;3.72;;
20344;SDS011;10330;48.816;9.278;2024-02-21T00:43:37;10.25;;;3.70;;
20344;SDS011;10330;48.816;9.278;2024-02-21T00:46:05;11.07;;;3.30;;
20344;SDS011;10330;48.816;9.278;2024-02-21T00:48:34;11.88;;;5.03;;
20344;SDS011;10330;48.816;9.278;2024-02-21T00:51:01;6.00;;;3.33;;
20344;SDS011;10330;48.816;9.278;2024-02-21T00:53:27;11.15;;;3.00;;
20344;SDS011;10330;48.816;9.278;2024-02-21T00:55:53;13.65;;;3.85;;
20344;SDS011;10330;48.816;9.278;2024-02-21T00:58:21;10.65;;;3.28;;
20344;SDS011;10330;48.816;9.278;2024-02-21T01:00:48;12.32;;;3.17;;
20344;SDS011;10330;48.816;9.278;2024-02-21T01:03:17;12.95;;;3.60;;
20344;SDS011;10330;48.816;9.278;2024-02-21T01:05:51;11.52;;;3.28;;
20344;SDS011;10330;48.816;9.278;2024-02-21T01:08:18;8.07;;;3.30;;
20344;SDS011;10330;48.816;9.278;2024-02-21T01:10:47;14.32;;;3.30;;
20344;SDS011;10330;48.816;9.278;2024-02-21T01:13:13;10.98;;;3.30;;
20344;SDS011;10330;48.816;9.278;2024-02-21T01:15:40;12.60;;;3.80;;
20344;SDS011;10330;48.816;9.278;2024-02-21T01:18:07;7.13;;;3.35;;
20344;SDS011;10330;48.816;9.278;2024-02-21T01:20:33;10.95;;;3.58;;
20344;SDS011;10330;48.816;9.278;2024-02-21T01:22:59;9.85;;;3.58;;
20344;SDS011;10330;48.816;9.278;2024-02-21T01:25:35;16.27;;;3.10;;
20344;SDS011;10330;48.816;9.278;2024-02-21T01:28:07;12.15;;;3.53;;
20344;SDS011;10330;48.816;9.278;2024-02-21T01:30:34;12.93;;;3.78;;
20344;SDS011;10330;48.816;9.278;2024-02-21T01:33:03;16.85;;;3.70;;
20344;SDS011;10330;48.816;9.278;2024-02-21T01:35:43;9.77;;;3.20;;
20344;SDS011;10330;48.816;9.278;2024-02-21T01:45:01;12.48;;;3.15;;
20344;SDS011;10330;48.816;9.278;2024-02-21T01:47:28;11.75;;;3.45;;
20344;SDS011;10330;48.816;9.278;2024-02-21T01:50:10;19.40;;;4.03;;
20344;SDS011;10330;48.816;9.278;2024-02-21T01:55:54;13.65;;;3.17;;
20344;SDS011;10330;48.816;9.278;2024-02-21T02:01:24;7.03;;;3.47;;
20344;SDS011;10330;48.816;9.278;2024-02-21T02:08:06;7.72;;;2.95;;
20344;SDS011;10330;48.816;9.278;2024-02-21T02:10:42;11.30;;;3.53;;
20344;SDS011;10330;48.816;9.278;2024-02-21T02:13:09;8.40;;;3.42;;
20344;SDS011;10330;48.816;9.278;2024-02-21T02:19:25;13.65;;;3.53;;
20344;SDS011;10330;48.816;9.278;2024-02-21T02:22:45;7.22;;;3.47;;
20344;SDS011;10330;48.816;9.278;2024-02-21T02:39:01;15.45;;;4.35;;
20344;SDS011;10330;48.816;9.278;2024-02-21T02:44:41;6.53;;;3.10;;
20344;SDS011;10330;48.816;9.278;2024-02-21T02:47:08;8.13;;;2.88;;
20344;SDS011;10330;48.816;9.278;2024-02-21T02:49:35;8.80;;;3.20;;
20344;SDS011;10330;48.816;9.278;2024-02-21T02:52:02;8.07;;;3.40;;
20344;SDS011;10330;48.816;9.278;2024-02-21T02:54:31;11.15;;;3.45;;
20344;SDS011;10330;48.816;9.278;2024-02-21T02:57:04;6.63;;;3.20;;
20344;SDS011;10330;48.816;9.278;2024-02-21T02:59:33;10.18;;;3.50;;
20344;SDS011;10330;48.816;9.278;2024-02-21T03:02:03;9.32;;;3.00;;
20344;SDS011;10330;48.816;9.278;2024-02-21T03:08:08;12.77;;;3.13;;
20344;SDS011;10330;48.816;9.278;2024-02-21T03:18:35;8.00;;;3.17;;
20344;SDS011;10330;48.816;9.278;2024-02-21T03:29:22;6.53;;;3.05;;
20344;SDS011;10330;48.816;9.278;2024-02-21T03:31:59;10.38;;;2.88;;
20344;SDS011;10330;48.816;9.278;2024-02-21T03:34:26;8.57;;;3.00;;
20344;SDS011;10330;48.816;9.278;2024-02-21T03:36:53;6.53;;;2.60;;
20344;SDS011;10330;48.816;9.278;2024-02-21T03:39:25;8.38;;;3.17;;
20344;SDS011;10330;48.816;9.278;2024-02-21T03:41:51;12.38;;;2.90;;
20344;SDS011;10330;48.816;9.278;2024-02-21T03:44:18;17.58;;;6.53;;
20344;SDS011;10330;48.816;9.278;2024-02-21T03:46:48;15.93;;;5.15;;
20344;SDS011;10330;48.816;9.278;2024-02-21T03:49:27;7.00;;;3.72;;
20344;SDS011;10330;48.816;9.278;2024-02-21T03:51:57;11.77;;;3.53;;
20344;SDS011;10330;48.816;9.278;2024-02-21T03:54:24;5.35;;;2.55;;
20344;SDS011;10330;48.816;9.278;2024-02-21T03:56:50;13.52;;;3.15;;
20344;SDS011;10330;48.816;9.278;2024-02-21T03:59:20;9.88;;;2.55;;
20344;SDS011;10330;48.816;9.278;2024-02-21T04:01:51;12.55;;;2.88;;
20344;SDS011;10330;48.816;9.278;2024-02-21T04:04:20;7.55;;;2.63;;
20344;SDS011;10330;48.816;9.278;2024-02-21T04:06:50;5.80;;;3.45;;
20344;SDS011;10330;48.816;9.278;2024-02-21T04:09:17;8.52;;;2.95;;
20344;SDS011;10330;48.816;9.278;2024-02-21T04:11:48;9.23;;;3.10;;
20344;SDS011;10330;48.816;9.278;2024-02-21T04:14:15;9.07;;;2.50;;
20344;SDS011;10330;48.816;9.278;2024-02-21T04:16:47;8.82;;;2.60;;
20344;SDS011;10330;48.816;9.278;2024-02-21T04:19:19;11.65;;;2.40;;
20344;SDS011;10330;48.816;9.278;2024-02-21T04:22:10;6.05;;;2.88;;
20344;SDS011;10330;48.816;9.278;2024-02-21T04:24:53;7.95;;;2.42;;
20344;SDS011;10330;48.816;9.278;2024-02-21T04:27:28;9.63;;;2.35;;
20344;SDS011;10330;48.816;9.278;2024-02-21T04:29:57;9.25;;;3.03;;
20344;SDS011;10330;48.816;9.278;2024-02-21T04:32:28;5.25;;;2.17;;
20344;SDS011;10330;48.816;9.278;2024-02-21T04:34:55;17.42;;;3.42;;
20344;SDS011;10330;48.816;9.278;2024-02-21T04:37:39;6.88;;;2.38;;
20344;SDS011;10330;48.816;9.278;2024-02-21T04:40:36;13.90;;;2.72;;
20344;SDS011;10330;48.816;9.278;2024-02-21T04:43:03;9.52;;;2.58;;
20344;SDS011;10330;48.816;9.278;2024-02-21T04:48:24;7.85;;;2.70;;
20344;SDS011;10330;48.816;9.278;2024-02-21T04:50:52;6.57;;;2.47;;
20344;SDS011;10330;48.816;9.278;2024-02-21T04:53:20;5.40;;;2.53;;
20344;SDS011;10330;48.816;9.278;2024-02-21T04:56:09;10.00;;;2.15;;
20344;SDS011;10330;48.816;9.278;2024-02-21T04:59:02;9.73;;;3.10;;
20344;SDS011;10330;48.816;9.278;2024-02-21T05:01:38;10.10;;;2.17;;
20344;SDS011;10330;48.816;9.278;2024-02-21T05:04:07;12.27;;;3.03;;
20344;SDS011;10330;48.816;9.278;2024-02-21T05:06:40;10.48;;;2.78;;
20344;SDS011;10330;48.816;9.278;2024-02-21T05:09:09;4.93;;;2.47;;
20344;SDS011;10330;48.816;9.278;2024-02-21T05:11:36;9.50;;;3.00;;
20344;SDS011;10330;48.816;9.278;2024-02-21T05:14:03;6.35;;;2.65;;
20344;SDS011;10330;48.816;9.278;2024-02-21T05:16:32;12.65;;;2.53;;
20344;SDS011;10330;48.816;9.278;2024-02-21T05:18:58;6.13;;;2.78;;
20344;SDS011;10330;48.816;9.278;2024-02-21T05:21:25;12.10;;;2.72;;
20344;SDS011;10330;48.816;9.278;2024-02-21T05:23:53;5.75;;;3.05;;
20344;SDS011;10330;48.816;9.278;2024-02-21T05:26:20;8.27;;;3.05;;
20344;SDS011;10330;48.816;9.278;2024-02-21T05:28:50;11.50;;;2.90;;
20344;SDS011;10330;48.816;9.278;2024-02-21T05:31:17;6.40;;;3.08;;
20344;SDS011;10330;48.816;9.278;2024-02-21T05:33:44;8.43;;;2.58;;
20344;SDS011;10330;48.816;9.278;2024-02-21T05:36:11;10.90;;;2.80;;
20344;SDS011;10330;48.816;9.278;2024-02-21T05:38:38;6.72;;;2.53;;
20344;SDS011;10330;48.816;9.278;2024-02-21T05:41:05;2.58;;;2.08;;
20344;SDS011;10330;48.816;9.278;2024-02-21T05:43:31;12.23;;;2.55;;
20344;SDS011;10330;48.816;9.278;2024-02-21T05:45:58;5.72;;;2.42;;
20344;SDS011;10330;48.816;9.278;2024-02-21T05:48:24;6.85;;;2.08;;
20344;SDS011;10330;48.816;9.278;2024-02-21T05:50:51;8.13;;;2.30;;
20344;SDS011;10330;48.816;9.278;2024-02-21T05:53:17;4.60;;;2.60;;
20344;SDS011;10330;48.816;9.278;2024-02-21T05:55:44;8.73;;;2.70;;
20344;SDS011;10330;48.816;9.278;2024-02-21T05:58:10;4.88;;;2.05;;
20344;SDS011;10330;48.816;9.278;2024-02-21T06:00:39;3.45;;;2.00;;
20344;SDS011;10330;48.816;9.278;2024-02-21T06:03:08;5.45;;;2.47;;
20344;SDS011;10330;48.816;9.278;2024-02-21T06:05:37;6.47;;;2.25;;
20344;SDS011;10330;48.816;9.278;2024-02-21T06:08:04;10.73;;;2.35;;
20344;SDS011;10330;48.816;9.278;2024-02-21T06:10:31;3.28;;;1.80;;
20344;SDS011;10330;48.816;9.278;2024-02-21T06:13:05;4.70;;;2.15;;
20344;SDS011;10330;48.816;9.278;2024-02-21T06:18:57;6.78;;;2.05;;
20344;SDS011;10330;48.816;9.278;2024-02-21T06:21:29;4.25;;;2.25;;
20344;SDS011;10330;48.816;9.278;2024-02-21T06:23:55;7.25;;;2.47;;
20344;SDS011;10330;48.816;9.278;2024-02-21T06:26:22;4.07;;;2.35;;
20344;SDS011;10330;48.816;9.278;2024-02-21T06:28:48;7.38;;;2.60;;
20344;SDS011;10330;48.816;9.278;2024-02-21T06:31:22;9.95;;;2.65;;
20344;SDS011;10330;48.816;9.278;2024-02-21T06:33:48;6.72;;;2.80;;
20344;SDS011;10330;48.816;9.278;2024-02-21T06:36:15;4.90;;;3.00;;
20344;SDS011;10330;48.816;9.278;2024-02-21T06:38:45;5.20;;;2.63;;
20344;SDS011;10330;48.816;9.278;2024-02-21T06:41:16;7.93;;;3.35;;
20344;SDS011;10330;48.816;9.278;2024-02-21T06:43:47;7.50;;;2.80;;
20344;SDS011;10330;48.816;9.278;2024-02-21T06:46:26;9.57;;;2.70;;
20344;SDS011;10330;48.816;9.278;2024-02-21T06:48:58;10.45;;;2.88;;
20344;SDS011;10330;48.816;9.278;2024-02-21T06:51:26;6.95;;;3.10;;
20344;SDS011;10330;48.816;9.278;2024-02-21T06:53:53;4.28;;;2.45;;
20344;SDS011;10330;48.816;9.278;2024-02-21T06:56:19;15.85;;;2.65;;
20344;SDS011;10330;48.816;9.278;2024-02-21T06:58:46;4.07;;;2.55;;
20344;SDS011;10330;48.816;9.278;2024-02-21T07:01:12;6.80;;;2.70;;
20344;SDS011;10330;48.816;9.278;2024-02-21T07:03:39;13.15;;;2.88;;
20344;SDS011;10330;48.816;9.278;2024-02-21T07:06:05;7.47;;;3.13;;
20344;SDS011;10330;48.816;9.278;2024-02-21T07:08:32;6.75;;;2.83;;
20344;SDS011;10330;48.816;9.278;2024-02-21T07:10:58;9.60;;;3.25;;
20344;SDS011;10330;48.816;9.278;2024-02-21T07:13:24;5.28;;;2.58;;
20344;SDS011;10330;48.816;9.278;2024-02-21T07:15:51;8.45;;;2.55;;
20344;SDS011;10330;48.816;9.278;2024-02-21T07:18:18;3.72;;;2.28;;
20344;SDS011;10330;48.816;9.278;2024-02-21T07:20:45;4.32;;;2.30;;
20344;SDS011;10330;48.816;9.278;2024-02-21T07:23:14;6.40;;;2.90;;
20344;SDS011;10330;48.816;9.278;2024-02-21T07:25:40;5.95;;;2.20;;
20344;SDS011;10330;48.816;9.278;2024-02-21T07:28:06;5.70;;;2.38;;
20344;SDS011;10330;48.816;9.278;2024-02-21T07:30:33;8.07;;;2.90;;
20344;SDS011;10330;48.816;9.278;2024-02-21T07:32:59;11.00;;;3.25;;
20344;SDS011;10330;48.816;9.278;2024-02-21T07:38:50;7.07;;;2.15;;
20344;SDS011;10330;48.816;9.278;2024-02-21T07:41:19;7.72;;;2.78;;
20344;SDS011;10330;48.816;9.278;2024-02-21T07:48:46;8.25;;;1.83;;
20344;SDS011;10330;48.816;9.278;2024-02-21T07:54:47;12.43;;;2.30;;
20344;SDS011;10330;48.816;9.278;2024-02-21T08:28:15;10.18;;;2.92;;
20344;SDS011;10330;48.816;9.278;2024-02-21T08:30:42;9.55;;;2.90;;
20344;SDS011;10330;48.816;9.278;2024-02-21T08:33:18;13.63;;;2.75;;
20344;SDS011;10330;48.816;9.278;2024-02-21T08:35:45;7.63;;;3.30;;
20344;SDS011;10330;48.816;9.278;2024-02-21T08:38:12;6.55;;;2.80;;
20344;SDS011;10330;48.816;9.278;2024-02-21T08:40:51;11.80;;;2.83;;
20344;SDS011;10330;48.816;9.278;2024-02-21T08:43:59;13.43;;;3.67;;
20344;SDS011;10330;48.816;9.278;2024-02-21T09:09:37;12.75;;;2.88;;
20344;SDS011;10330;48.816;9.278;2024-02-21T09:21:00;6.65;;;2.53;;
20344;SDS011;10330;48.816;9.278;2024-02-21T09:23:47;12.43;;;2.63;;
20344;SDS011;10330;48.816;9.278;2024-02-21T09:26:46;5.45;;;2.30;;
20344;SDS011;10330;48.816;9.278;2024-02-21T09:29:21;5.05;;;2.30;;
20344;SDS011;10330;48.816;9.278;2024-02-21T09:34:41;5.47;;;2.25;;
20344;SDS011;10330;48.816;9.278;2024-02-21T09:37:08;6.85;;;2.55;;
20344;SDS011;10330;48.816;9.278;2024-02-21T09:57:14;11.80;;;2.45;;
20344;SDS011;10330;48.816;9.278;2024-02-21T09:59:51;8.82;;;2.50;;
20344;SDS011;10330;48.816;9.278;2024-02-21T10:05:15;6.70;;;2.65;;
20344;SDS011;10330;48.816;9.278;2024-02-21T10:08:05;8.55;;;2.00;;
20344;SDS011;10330;48.816;9.278;2024-02-21T10:10:44;9.85;;;2.90;;
20344;SDS011;10330;48.816;9.278;2024-02-21T10:16:18;4.65;;;2.08;;
20344;SDS011;10330;48.816;9.278;2024-02-21T10:22:47;12.13;;;2.45;;
20344;SDS011;10330;48.816;9.278;2024-02-21T10:32:53;6.13;;;2.22;;
20344;SDS011;10330;48.816;9.278;2024-02-21T10:38:55;6.85;;;2.05;;
20344;SDS011;10330;48.816;9.278;2024-02-21T10:41:43;5.60;;;2.13;;
20344;SDS011;10330;48.816;9.278;2024-02-21T10:44:21;14.30;;;2.97;;
20344;SDS011;10330;48.816;9.278;2024-02-21T10:50:26;8.57;;;2.65;;
20344;SDS011;10330;48.816;9.278;2024-02-21T11:04:03;9.82;;;3.00;;
20344;SDS011;10330;48.816;9.278;2024-02-21T11:22:24;8.60;;;1.70;;
20344;SDS011;10330;48.816;9.278;2024-02-21T11:25:11;5.35;;;1.90;;
20344;SDS011;10330;48.816;9.278;2024-02-21T11:27:49;7.85;;;1.95;;
20344;SDS011;10330;48.816;9.278;2024-02-21T11:30:16;6.78;;;1.63;;
20344;SDS011;10330;48.816;9.278;2024-02-21T11:33:01;3.28;;;1.80;;
20344;SDS011;10330;48.816;9.278;2024-02-21T11:43:18;4.32;;;1.75;;
20344;SDS011;10330;48.816;9.278;2024-02-21T11:45:46;3.22;;;1.55;;
20344;SDS011;10330;48.816;9.278;2024-02-21T11:48:13;3.22;;;1.63;;
20344;SDS011;10330;48.816;9.278;2024-02-21T11:53:45;4.32;;;1.73;;
20344;SDS011;10330;48.816;9.278;2024-02-21T11:56:11;5.88;;;1.40;;
20344;SDS011;10330;48.816;9.278;2024-02-21T11:58:39;6.05;;;1.45;;
20344;SDS011;10330;48.816;9.278;2024-02-21T12:01:08;4.15;;;1.67;;
20344;SDS011;10330;48.816;9.278;2024-02-21T12:03:35;5.47;;;1.55;;
20344;SDS011;10330;48.816;9.278;2024-02-21T12:09:48;4.25;;;1.90;;
20344;SDS011;10330;48.816;9.278;2024-02-21T12:14:58;6.03;;;1.60;;
20344;SDS011;10330;48.816;9.278;2024-02-21T12:17:24;4.07;;;1.40;;
20344;SDS011;10330;48.816;9.278;2024-02-21T12:19:51;5.15;;;1.65;;
20344;SDS011;10330;48.816;9.278;2024-02-21T12:22:22;2.90;;;1.17;;
20344;SDS011;10330;48.816;9.278;2024-02-21T12:24:53;1.40;;;1.40;;
20344;SDS011;10330;48.816;9.278;2024-02-21T12:27:23;7.72;;;2.17;;
20344;SDS011;10330;48.816;9.278;2024-02-21T12:29:55;3.92;;;1.13;;
20344;SDS011;10330;48.816;9.278;2024-02-21T12:32:34;2.15;;;1.30;;
20344;SDS011;10330;48.816;9.278;2024-02-21T12:35:00;3.85;;;1.20;;
20344;SDS011;10330;48.816;9.278;2024-02-21T12:37:31;3.13;;;1.63;;
20344;SDS011;10330;48.816;9.278;2024-02-21T12:39:58;4.63;;;1.42;;
20344;SDS011;10330;48.816;9.278;2024-02-21T12:42:35;5.75;;;1.50;;
20344;SDS011;10330;48.816;9.278;2024-02-21T12:45:03;5.15;;;1.30;;
20344;SDS011;10330;48.816;9.278;2024-02-21T12:47:41;4.03;;;1.17;;
20344;SDS011;10330;48.816;9.278;2024-02-21T12:50:10;4.03;;;1.10;;
20344;SDS011;10330;48.816;9.278;2024-02-21T12:52:36;5.10;;;1.35;;
20344;SDS011;10330;48.816;9.278;2024-02-21T12:55:03;2.35;;;1.17;;
20344;SDS011;10330;48.816;9.278;2024-02-21T12:57:30;1.23;;;1.13;;
20344;SDS011;10330;48.816;9.278;2024-02-21T12:59:56;3.15;;;1.27;;
20344;SDS011;10330;48.816;9.278;2024-02-21T13:02:23;1.88;;;1.02;;
20344;SDS011;10330;48.816;9.278;2024-02-21T13:04:49;5.32;;;1.20;;
20344;SDS011;10330;48.816;9.278;2024-02-21T13:07:16;2.33;;;1.20;;
20344;SDS011;10330;48.816;9.278;2024-02-21T13:09:42;1.45;;;1.13;;
20344;SDS011;10330;48.816;9.278;2024-02-21T13:12:09;3.90;;;1.30;;
20344;SDS011;10330;48.816;9.278;2024-02-21T13:14:38;1.25;;;1.15;;
20344;SDS011;10330;48.816;9.278;2024-02-21T13:17:05;3.50;;;1.50;;
20344;SDS011;10330;48.816;9.278;2024-02-21T13:19:40;3.58;;;1.10;;
20344;SDS011;10330;48.816;9.278;2024-02-21T13:22:40;1.85;;;1.20;;
20344;SDS011;10330;48.816;9.278;2024-02-21T13:29:01;2.05;;;1.10;;
20344;SDS011;10330;48.816;9.278;2024-02-21T13:31:28;1.85;;;1.40;;
20344;SDS011;10330;48.816;9.278;2024-02-21T13:33:54;4.05;;;1.50;;
20344;SDS011;10330;48.816;9.278;2024-02-21T13:36:38;2.60;;;1.10;;
20344;SDS011;10330;48.816;9.278;2024-02-21T13:39:04;2.60;;;1.10;;
20344;SDS011;10330;48.816;9.278;2024-02-21T13:41:31;1.42;;;0.98;;
20344;SDS011;10330;48.816;9.278;2024-02-21T13:43:57;5.55;;;1.33;;
20344;SDS011;10330;48.816;9.278;2024-02-21T13:46:25;2.83;;;0.95;;
20344;SDS011;10330;48.816;9.278;2024-02-21T13:51:58;3.40;;;1.25;;
20344;SDS011;10330;48.816;9.278;2024-02-21T13:54:25;2.15;;;1.33;;
20344;SDS011;10330;48.816;9.278;2024-02-21T13:56:57;3.40;;;1.20;;
20344;SDS011;10330;48.816;9.278;2024-02-21T13:59:28;3.88;;;1.05;;
20344;SDS011;10330;48.816;9.278;2024-02-21T14:05:28;3.50;;;1.10;;
20344;SDS011;10330;48.816;9.278;2024-02-21T14:08:49;0.88;;;0.88;;
20344;SDS011;10330;48.816;9.278;2024-02-21T14:11:16;1.13;;;0.95;;
20344;SDS011;10330;48.816;9.278;2024-02-21T14:13:46;1.83;;;1.73;;
20344;SDS011;10330;48.816;9.278;2024-02-21T14:16:12;3.75;;;1.58;;
20344;SDS011;10330;48.816;9.278;2024-02-21T14:18:39;1.92;;;1.08;;
20344;SDS011;10330;48.816;9.278;2024-02-21T14:21:12;4.72;;;1.23;;
20344;SDS011;10330;48.816;9.278;2024-02-21T14:23:38;3.45;;;1.10;;
20344;SDS011;10330;48.816;9.278;2024-02-21T14:26:05;1.77;;;0.93;;
20344;SDS011;10330;48.816;9.278;2024-02-21T14:28:34;3.80;;;1.35;;
20344;SDS011;10330;48.816;9.278;2024-02-21T14:31:07;3.13;;;1.20;;
20344;SDS011;10330;48.816;9.278;2024-02-21T14:33:37;3.38;;;1.05;;
20344;SDS011;10330;48.816;9.278;2024-02-21T14:36:08;2.83;;;0.98;;
20344;SDS011;10330;48.816;9.278;2024-02-21T14:38:59;1.67;;;1.17;;
20344;SDS011;10330;48.816;9.278;2024-02-21T14:44:43;2.53;;;1.08;;
20344;SDS011;10330;48.816;9.278;2024-02-21T14:47:20;3.33;;;0.90;;
20344;SDS011;10330;48.816;9.278;2024-02-21T14:50:09;3.78;;;1.27;;
20344;SDS011;10330;48.816;9.278;2024-02-21T14:54:01;2.13;;;0.82;;
20344;SDS011;10330;48.816;9.278;2024-02-21T14:56:40;3.42;;;1.30;;
20344;SDS011;10330;48.816;9.278;2024-02-21T14:59:06;4.97;;;1.63;;
20344;SDS011;10330;48.816;9.278;2024-02-21T15:01:37;3.95;;;1.45;;
20344;SDS011;10330;48.816;9.278;2024-02-21T15:04:06;1.42;;;1.30;;
20344;SDS011;10330;48.816;9.278;2024-02-21T15:45:37;4.57;;;1.45;;
20344;SDS011;10330;48.816;9.278;2024-02-21T15:52:14;2.72;;;2.50;;
20344;SDS011;10330;48.816;9.278;2024-02-21T15:54:43;4.70;;;1.58;;
20344;SDS011;10330;48.816;9.278;2024-02-21T16:00:41;2.28;;;1.48;;
20344;SDS011;10330;48.816;9.278;2024-02-21T16:18:54;3.95;;;1.90;;
20344;SDS011;10330;48.816;9.278;2024-02-21T16:22:23;4.18;;;1.42;;
20344;SDS011;10330;48.816;9.278;2024-02-21T16:25:33;4.88;;;1.83;;
20344;SDS011;10330;48.816;9.278;2024-02-21T16:33:02;2.78;;;1.45;;
20344;SDS011;10330;48.816;9.278;2024-02-21T16:36:28;2.22;;;1.23;;
20344;SDS011;10330;48.816;9.278;2024-02-21T16:43:24;5.10;;;2.00;;
20344;SDS011;10330;48.816;9.278;2024-02-21T16:46:56;4.30;;;1.67;;
20344;SDS011;10330;48.816;9.278;2024-02-21T16:50:14;6.00;;;1.90;;
20344;SDS011;10330;48.816;9.278;2024-02-21T17:11:13;5.40;;;2.05;;
20344;SDS011;10330;48.816;9.278;2024-02-21T17:14:00;9.80;;;2.70;;
20344;SDS011;10330;48.816;9.278;2024-02-21T17:17:18;6.25;;;2.83;;
20344;SDS011;10330;48.816;9.278;2024-02-21T17:52:49;15.82;;;6.43;;
20344;SDS011;10330;48.816;9.278;2024-02-21T17:55:16;14.52;;;6.72;;
20344;SDS011;10330;48.816;9.278;2024-02-21T17:57:42;6.72;;;2.67;;
20344;SDS011;10330;48.816;9.278;2024-02-21T18:00:10;2.55;;;2.35;;
20344;SDS011;10330;48.816;9.278;2024-02-21T18:02:40;7.50;;;3.58;;
20344;SDS011;10330;48.816;9.278;2024-02-21T18:31:31;5.57;;;3.25;;
20344;SDS011;10330;48.816;9.278;2024-02-21T18:34:05;7.72;;;2.63;;
20344;SDS011;10330;48.816;9.278;2024-02-21T18:36:37;10.50;;;2.90;;
20344;SDS011;10330;48.816;9.278;2024-02-21T18:39:17;8.73;;;2.90;;
20344;SDS011;10330;48.816;9.278;2024-02-21T18:42:03;7.18;;;3.15;;
20344;SDS011;10330;48.816;9.278;2024-02-21T18:47:54;5.50;;;2.85;;
20344;SDS011;10330;48.816;9.278;2024-02-21T18:53:56;3.67;;;2.47;;
20344;SDS011;10330;48.816;9.278;2024-02-21T19:00:32;6.30;;;2.90;;
20344;SDS011;10330;48.816;9.278;2024-02-21T19:03:24;4.55;;;2.78;;
20344;SDS011;10330;48.816;9.278;2024-02-21T19:05:54;3.65;;;2.65;;
20344;SDS011;10330;48.816;9.278;2024-02-21T19:11:55;10.73;;;3.03;;
20344;SDS011;10330;48.816;9.278;2024-02-21T19:15:04;3.38;;;2.25;;
20344;SDS011;10330;48.816;9.278;2024-02-21T19:17:32;2.42;;;2.22;;
20344;SDS011;10330;48.816;9.278;2024-02-21T19:20:15;3.90;;;2.42;;
20344;SDS011;10330;48.816;9.278;2024-02-21T19:23:03;2.92;;;2.15;;
20344;SDS011;10330;48.816;9.278;2024-02-21T19:25:44;5.15;;;2.00;;
20344;SDS011;10330;48.816;9.278;2024-02-21T19:28:32;3.08;;;1.95;;
20344;SDS011;10330;48.816;9.278;2024-02-21T19:31:13;2.13;;;1.90;;
20344;SDS011;10330;48.816;9.278;2024-02-21T19:33:57;7.32;;;2.03;;
20344;SDS011;10330;48.816;9.278;2024-02-21T19:36:33;4.95;;;2.40;;
20344;SDS011;10330;48.816;9.278;2024-02-21T19:39:31;6.38;;;2.25;;
20344;SDS011;10330;48.816;9.278;2024-02-21T19:42:26;3.80;;;2.40;;
20344;SDS011;10330;48.816;9.278;2024-02-21T19:45:14;5.93;;;2.47;;
20344;SDS011;10330;48.816;9.278;2024-02-21T19:47:44;3.50;;;1.95;;
20344;SDS011;10330;48.816;9.278;2024-02-21T19:50:19;2.42;;;1.80;;
20344;SDS011;10330;48.816;9.278;2024-02-21T19:52:57;4.43;;;2.03;;
20344;SDS011;10330;48.816;9.278;2024-02-21T19:55:26;6.80;;;2.05;;
20344;SDS011;10330;48.816;9.278;2024-02-21T19:57:53;2.22;;;2.00;;
20344;SDS011;10330;48.816;9.278;2024-02-21T20:00:23;5.63;;;2.63;;
20344;SDS011;10330;48.816;9.278;2024-02-21T20:02:49;3.78;;;2.35;;
20344;SDS011;10330;48.816;9.278;2024-02-21T20:05:18;3.63;;;2.22;;
20344;SDS011;10330;48.816;9.278;2024-02-21T20:07:45;1.70;;;1.60;;
20344;SDS011;10330;48.816;9.278;2024-02-21T20:10:11;3.42;;;2.08;;
20344;SDS011;10330;48.816;9.278;2024-02-21T20:12:46;4.93;;;2.28;;
20344;SDS011;10330;48.816;9.278;2024-02-21T20:15:27;4.68;;;2.60;;
20344;SDS011;10330;48.816;9.278;2024-02-21T20:17:56;5.22;;;2.30;;
20344;SDS011;10330;48.816;9.278;2024-02-21T20:20:27;2.22;;;1.90;;
20344;SDS011;10330;48.816;9.278;2024-02-21T20:23:24;2.47;;;1.80;;
20344;SDS011;10330;48.816;9.278;2024-02-21T20:25:58;2.00;;;1.80;;
20344;SDS011;10330;48.816;9.278;2024-02-21T20:28:36;2.15;;;1.90;;
20344;SDS011;10330;48.816;9.278;2024-02-21T20:47:59;1.88;;;1.50;;
20344;SDS011;10330;48.816;9.278;2024-02-21T20:50:28;2.92;;;1.63;;
20344;SDS011;10330;48.816;9.278;2024-02-21T20:52:57;2.47;;;1.65;;
20344;SDS011;10330;48.816;9.278;2024-02-21T20:55:57;2.20;;;1.92;;
20344;SDS011;10330;48.816;9.278;2024-02-21T20:58:23;2.42;;;1.88;;
20344;SDS011;10330;48.816;9.278;2024-02-21T21:00:53;2.58;;;1.70;;
20344;SDS011;10330;48.816;9.278;2024-02-21T21:03:23;2.15;;;1.73;;
20344;SDS011;10330;48.816;9.278;2024-02-21T21:06:09;1.98;;;1.73;;
20344;SDS011;10330;48.816;9.278;2024-02-21T21:08:39;1.83;;;1.50;;
20344;SDS011;10330;48.816;9.278;2024-02-21T21:11:06;1.60;;;1.50;;
20344;SDS011;10330;48.816;9.278;2024-02-21T21:13:32;1.70;;;1.45;;
20344;SDS011;10330;48.816;9.278;2024-02-21T21:16:01;1.45;;;1.38;;
20344;SDS011;10330;48.816;9.278;2024-02-21T21:18:27;1.60;;;1.50;;
20344;SDS011;10330;48.816;9.278;2024-02-21T21:21:00;1.80;;;1.70;;
20344;SDS011;10330;48.816;9.278;2024-02-21T21:23:26;1.92;;;1.83;;
20344;SDS011;10330;48.816;9.278;2024-02-21T21:25:53;2.92;;;1.60;;
20344;SDS011;10330;48.816;9.278;2024-02-21T21:28:28;6.78;;;1.55;;
20344;SDS011;10330;48.816;9.278;2024-02-21T21:30:54;2.40;;;1.75;;
20344;SDS011;10330;48.816;9.278;2024-02-21T21:33:22;2.20;;;2.00;;
20344;SDS011;10330;48.816;9.278;2024-02-21T21:35:48;2.58;;;1.85;;
20344;SDS011;10330;48.816;9.278;2024-02-21T21:38:18;2.97;;;2.00;;
20344;SDS011;10330;48.816;9.278;2024-02-21T21:40:54;6.72;;;1.30;;
20344;SDS011;10330;48.816;9.278;2024-02-21T21:43:20;2.30;;;1.45;;
20344;SDS011;10330;48.816;9.278;2024-02-21T21:45:57;6.18;;;1.70;;
20344;SDS011;10330;48.816;9.278;2024-02-21T21:48:23;5.65;;;2.17;;
20344;SDS011;10330;48.816;9.278;2024-02-21T21:50:49;1.95;;;1.42;;
20344;SDS011;10330;48.816;9.278;2024-02-21T21:53:15;1.63;;;1.52;;
20344;SDS011;10330;48.816;9.278;2024-02-21T21:55:42;1.58;;;1.10;;
20344;SDS011;10330;48.816;9.278;2024-02-21T21:58:13;2.80;;;1.33;;
20344;SDS011;10330;48.816;9.278;2024-02-21T22:00:39;3.05;;;1.13;;
20344;SDS011;10330;48.816;9.278;2024-02-21T22:03:05;1.48;;;1.38;;
20344;SDS011;10330;48.816;9.278;2024-02-21T22:05:31;1.20;;;1.10;;
20344;SDS011;10330;48.816;9.278;2024-02-21T22:07:57;1.20;;;1.20;;
20344;SDS011;10330;48.816;9.278;2024-02-21T22:10:24;2.83;;;1.08;;
20344;SDS011;10330;48.816;9.278;2024-02-21T22:12:50;1.23;;;1.10;;
20344;SDS011;10330;48.816;9.278;2024-02-21T22:15:17;1.20;;;1.10;;
20344;SDS011;10330;48.816;9.278;2024-02-21T22:17:43;0.85;;;0.85;;
20344;SDS011;10330;48.816;9.278;2024-02-21T22:20:09;5.28;;;1.23;;
20344;SDS011;10330;48.816;9.278;2024-02-21T22:22:35;2.58;;;1.30;;